Time;durP1;ratioP1;P1;durP2;ratioP2;P2;SDS_P1;SDS_P2;PMS_P1;PMS_P2;Temp;Humidity;BMP_temperature;BMP_pressure;BME280_temperature;BME280_humidity;BME280_pressure;Samples;Min_cycle;Max_cycle;Signal;HPM_P1;HPM_P2
2022/04/23 00:01:26;;;;;;;6.80;6.30;;;;;;;12.65;100.00;98447.44;5029535;28;20201;-54
2022/04/23 00:03:53;;;;;;;7.07;6.40;;;;;;;12.55;100.00;98425.44;5029816;28;20220;-55
2022/04/23 00:06:20;;;;;;;7.00;6.40;;;;;;;12.65;100.00;98438.78;5029661;28;20211;-55
2022/04/23 00:08:47;;;;;;;7.80;7.10;;;;;;;12.71;100.00;98435.88;5029744;28;20734;-54
2022/04/23 00:11:14;;;;;;;8.23;7.13;;;;;;;12.50;100.00;98417.06;5029433;28;20605;-55
2022/04/23 00:13:42;;;;;;;11.07;9.33;;;;;;;12.50;100.00;98443.09;5029104;28;20706;-54
2022/04/23 00:16:10;;;;;;;12.73;10.60;;;;;;;12.39;100.00;98450.63;5044985;28;20699;-55
2022/04/23 00:18:38;;;;;;;12.23;11.03;;;;;;;12.39;100.00;98445.41;5069208;28;20591;-55
2022/04/23 00:21:05;;;;;;;12.33;11.07;;;;;;;12.38;100.00;98440.28;5069208;28;20278;-55
2022/04/23 00:23:33;;;;;;;13.10;11.27;;;;;;;12.43;100.00;98440.88;5069106;28;20199;-55
2022/04/23 00:26:00;;;;;;;13.63;12.23;;;;;;;12.42;100.00;98439.19;5069002;28;20228;-54
2022/04/23 00:28:28;;;;;;;12.40;11.17;;;;;;;12.36;100.00;98425.59;5069032;28;20200;-55
2022/04/23 00:30:56;;;;;;;11.67;10.60;;;;;;;12.57;100.00;98444.44;5069185;28;20242;-56
2022/04/23 00:33:23;;;;;;;13.90;11.00;;;;;;;12.56;100.00;98442.75;5069226;28;20278;-56
2022/04/23 00:35:50;;;;;;;14.57;10.90;;;;;;;12.52;100.00;98445.63;5068960;27;20294;-55
2022/04/23 00:38:17;;;;;;;13.77;10.50;;;;;;;12.43;100.00;98451.28;5068868;28;20215;-55
2022/04/23 00:40:46;;;;;;;13.93;10.13;;;;;;;12.40;100.00;98452.31;5068636;27;20645;-56
2022/04/23 00:43:27;;;;;;;12.20;10.67;;;;;;;12.45;100.00;98439.88;5068586;28;20708;-55
2022/04/23 00:45:56;;;;;;;9.90;8.00;;;;;;;12.48;100.00;98444.09;5068633;28;20238;-56
2022/04/23 00:48:24;;;;;;;13.63;9.90;;;;;;;12.48;100.00;98449.28;5068737;28;20203;-56
2022/04/23 00:50:52;;;;;;;11.33;9.80;;;;;;;12.53;100.00;98447.25;5068689;27;20259;-55
2022/04/23 00:53:21;;;;;;;13.10;10.37;;;;;;;12.47;100.00;98439.78;5068458;28;20248;-55
2022/04/23 00:55:49;;;;;;;15.60;10.47;;;;;;;12.35;100.00;98434.31;5068736;28;20656;-57
2022/04/23 00:58:17;;;;;;;14.40;11.43;;;;;;;12.37;100.00;98449.84;5068551;28;20569;-56
2022/04/23 01:00:45;;;;;;;12.83;11.27;;;;;;;12.25;100.00;98437.50;5068128;28;20200;-56
2022/04/23 01:03:14;;;;;;;12.50;11.27;;;;;;;12.10;100.00;98443.50;5068493;28;20277;-55
2022/04/23 01:05:44;;;;;;;14.47;10.33;;;;;;;12.06;100.00;98452.41;5068111;28;20202;-55
2022/04/23 01:08:14;;;;;;;10.93;9.70;;;;;;;12.17;100.00;98450.91;5068667;28;20192;-54
2022/04/23 01:10:42;;;;;;;10.40;9.60;;;;;;;12.15;100.00;98439.75;5068350;27;20196;-55
2022/04/23 01:13:10;;;;;;;10.57;9.47;;;;;;;12.18;100.00;98446.56;5068291;27;20200;-55
2022/04/23 01:15:37;;;;;;;10.63;9.50;;;;;;;12.26;100.00;98445.22;5068326;27;20200;-56
2022/04/23 01:18:05;;;;;;;10.03;9.13;;;;;;;12.31;100.00;98450.16;5068304;28;20198;-55
2022/04/23 01:20:34;;;;;;;10.53;9.47;;;;;;;12.25;100.00;98440.09;5067957;28;20203;-55
2022/04/23 01:23:01;;;;;;;13.43;9.90;;;;;;;12.20;100.00;98445.53;5067939;28;20245;-55
2022/04/23 01:25:30;;;;;;;13.20;9.53;;;;;;;12.11;100.00;98438.22;5067996;28;20231;-54
2022/04/23 01:27:58;;;;;;;11.60;9.83;;;;;;;12.08;100.00;98450.53;5068300;27;20196;-56
2022/04/23 01:30:25;;;;;;;10.33;8.20;;;;;;;11.95;100.00;98455.53;5068282;28;20205;-56
2022/04/23 01:32:52;;;;;;;9.30;8.50;;;;;;;11.82;100.00;98467.47;5067666;28;20223;-55
2022/04/23 01:35:19;;;;;;;12.83;7.97;;;;;;;11.59;100.00;98445.22;5067872;28;20196;-57
2022/04/23 01:37:47;;;;;;;9.07;7.50;;;;;;;11.56;100.00;98461.78;5067955;28;20218;-55
2022/04/23 01:40:14;;;;;;;11.13;7.43;;;;;;;11.51;100.00;98460.34;5067873;28;20203;-54
2022/04/23 01:42:41;;;;;;;10.10;7.93;;;;;;;11.44;100.00;98458.94;5067725;28;20565;-55
2022/04/23 01:45:08;;;;;;;11.23;7.73;;;;;;;11.34;100.00;98449.94;5068118;28;20206;-55
2022/04/23 01:47:35;;;;;;;7.90;7.20;;;;;;;11.36;100.00;98461.94;5067589;28;20203;-55
2022/04/23 01:50:02;;;;;;;15.00;8.30;;;;;;;11.31;100.00;98470.84;5067589;27;20192;-55
2022/04/23 01:52:29;;;;;;;8.93;7.57;;;;;;;11.31;100.00;98466.50;5067812;27;20234;-55
2022/04/23 01:54:57;;;;;;;9.20;8.30;;;;;;;11.12;100.00;98471.75;5066887;28;20197;-55
2022/04/23 01:57:24;;;;;;;9.23;8.23;;;;;;;11.07;100.00;98475.44;5067684;28;20218;-54
2022/04/23 01:59:51;;;;;;;10.43;8.90;;;;;;;10.99;100.00;98473.22;5067542;28;20204;-55
2022/04/23 02:02:18;;;;;;;9.87;8.37;;;;;;;10.94;100.00;98480.41;5067344;28;20672;-56
2022/04/23 02:04:45;;;;;;;9.73;8.73;;;;;;;11.01;100.00;98483.53;5067461;27;20192;-56
2022/04/23 02:07:11;;;;;;;9.90;8.80;;;;;;;10.95;100.00;98489.03;5067519;27;20206;-56
2022/04/23 02:09:38;;;;;;;8.80;8.10;;;;;;;10.76;100.00;98466.50;5057700;28;20204;-56
2022/04/23 02:12:08;;;;;;;9.30;8.37;;;;;;;10.72;100.00;98467.56;5027782;28;20221;-56
2022/04/23 02:14:35;;;;;;;11.67;8.50;;;;;;;10.81;100.00;98474.09;5027455;28;20632;-56
2022/04/23 02:17:03;;;;;;;10.20;7.77;;;;;;;10.67;100.00;98487.69;5027853;28;20205;-56
2022/04/23 02:19:30;;;;;;;9.80;7.93;;;;;;;10.56;100.00;98482.16;5027894;28;20573;-56
2022/04/23 02:21:57;;;;;;;10.33;8.60;;;;;;;10.67;100.00;98482.50;5027416;28;20197;-57
2022/04/23 02:24:24;;;;;;;9.47;8.37;;;;;;;10.61;100.00;98472.41;5027271;28;20229;-56
2022/04/23 02:26:50;;;;;;;11.23;8.33;;;;;;;10.67;100.00;98502.44;5027299;28;20205;-57
2022/04/23 02:29:19;;;;;;;8.70;7.80;;;;;;;10.59;100.00;98500.19;5027104;28;20701;-56
2022/04/23 02:31:46;;;;;;;8.57;7.77;;;;;;;10.53;100.00;98505.63;5027210;28;20311;-56
2022/04/23 02:34:13;;;;;;;9.40;8.50;;;;;;;10.49;100.00;98498.91;5027254;28;20201;-56
2022/04/23 02:36:40;;;;;;;12.57;8.63;;;;;;;10.39;100.00;98505.41;5027194;28;20201;-56
2022/04/23 02:39:07;;;;;;;10.53;8.70;;;;;;;10.37;100.00;98505.50;5027306;28;20597;-55
2022/04/23 02:41:34;;;;;;;11.57;7.73;;;;;;;10.25;100.00;98505.19;5027203;28;20197;-55
2022/04/23 02:44:01;;;;;;;13.40;9.27;;;;;;;10.13;100.00;98515.16;5027285;28;20254;-55
2022/04/23 02:46:30;;;;;;;10.20;8.60;;;;;;;10.14;100.00;98514.25;5027213;28;20674;-55
2022/04/23 02:48:58;;;;;;;10.27;9.20;;;;;;;10.13;100.00;98511.72;5027305;28;20251;-55
2022/04/23 02:51:25;;;;;;;9.40;8.40;;;;;;;10.15;100.00;98522.88;5026965;28;20200;-54
2022/04/23 02:53:52;;;;;;;10.67;9.10;;;;;;;10.07;100.00;98520.56;5027352;28;20197;-56
2022/04/23 02:56:19;;;;;;;13.33;9.17;;;;;;;10.08;100.00;98530.03;5026828;28;20696;-55
2022/04/23 02:58:46;;;;;;;9.87;8.97;;;;;;;9.98;100.00;98487.28;5027030;28;20612;-55
2022/04/23 03:01:13;;;;;;;11.60;10.03;;;;;;;10.18;100.00;98521.00;5026905;28;20583;-54
2022/04/23 03:03:42;;;;;;;10.90;9.87;;;;;;;10.24;100.00;98524.25;5026826;28;20288;-53
2022/04/23 03:06:09;;;;;;;10.17;9.10;;;;;;;10.31;100.00;98531.69;5029927;28;20212;-54
2022/04/23 03:08:38;;;;;;;10.13;9.33;;;;;;;10.38;100.00;98533.13;5030601;28;20679;-55
2022/04/23 03:11:07;;;;;;;12.97;10.40;;;;;;;10.23;100.00;98546.75;5030534;28;20205;-55
2022/04/23 03:13:35;;;;;;;11.57;10.37;;;;;;;10.16;100.00;98538.31;5030651;28;20267;-56
2022/04/23 03:16:02;;;;;;;15.27;10.60;;;;;;;10.22;100.00;98557.16;5030308;28;20209;-56
2022/04/23 03:18:29;;;;;;;13.00;10.27;;;;;;;10.16;100.00;98564.25;5035108;28;20225;-56
2022/04/23 03:20:59;;;;;;;11.50;9.97;;;;;;;10.22;100.00;98576.16;5048784;28;20224;-54
2022/04/23 03:23:27;;;;;;;10.87;9.80;;;;;;;10.22;100.00;98573.56;5057415;28;20212;-56
2022/04/23 03:25:54;;;;;;;20.17;10.40;;;;;;;10.15;100.00;98554.81;5069191;28;20304;-55
2022/04/23 03:28:23;;;;;;;11.47;10.37;;;;;;;10.31;100.00;98577.53;5069319;28;20220;-55
2022/04/23 03:30:50;;;;;;;11.80;10.53;;;;;;;10.33;100.00;98579.16;5069406;28;20610;-54
2022/04/23 03:33:17;;;;;;;12.20;10.70;;;;;;;10.36;100.00;98567.81;5068958;28;20240;-55
2022/04/23 03:35:44;;;;;;;10.33;9.27;;;;;;;10.49;100.00;98566.38;5059111;28;20221;-55
2022/04/23 03:38:13;;;;;;;10.17;9.13;;;;;;;10.57;100.00;98569.47;5038155;27;20213;-55
2022/04/23 03:40:40;;;;;;;10.93;9.90;;;;;;;10.62;100.00;98570.09;5039046;28;20616;-55
2022/04/23 03:43:07;;;;;;;15.20;9.53;;;;;;;10.60;100.00;98565.91;5031689;27;20225;-55
2022/04/23 03:45:36;;;;;;;12.80;10.30;;;;;;;10.61;100.00;98560.63;5029680;28;20225;-56
2022/04/23 03:48:03;;;;;;;11.53;9.63;;;;;;;10.66;100.00;98548.28;5028949;27;20775;-56
2022/04/23 03:50:31;;;;;;;12.40;10.30;;;;;;;10.84;100.00;98541.41;5028785;28;20232;-56
2022/04/23 03:52:58;;;;;;;12.83;9.83;;;;;;;10.94;100.00;98547.06;5037424;27;20228;-56
2022/04/23 03:55:26;;;;;;;13.97;9.83;;;;;;;11.10;100.00;98548.88;5069376;28;20624;-57
2022/04/23 03:57:54;;;;;;;12.73;9.80;;;;;;;11.32;100.00;98548.72;5068838;28;20226;-56
2022/04/23 04:00:22;;;;;;;10.53;9.27;;;;;;;11.57;100.00;98546.63;5069647;28;20259;-56
2022/04/23 04:02:49;;;;;;;12.63;9.77;;;;;;;11.76;100.00;98554.41;5045598;28;20217;-55
2022/04/23 04:05:17;;;;;;;12.30;9.50;;;;;;;11.99;100.00;98541.09;5028408;28;20193;-54
2022/04/23 04:07:45;;;;;;;13.60;9.80;;;;;;;12.25;100.00;98550.22;5029406;28;20753;-54
2022/04/23 04:10:13;;;;;;;10.77;8.87;;;;;;;12.57;100.00;98547.69;5029443;28;20198;-54
2022/04/23 04:12:42;;;;;;;9.90;8.90;;;;;;;13.32;100.00;98555.78;5029400;28;20244;-55
2022/04/23 04:15:11;;;;;;;11.63;9.27;;;;;;;14.27;95.08;98566.03;5029636;28;20281;-55
2022/04/23 04:17:41;;;;;;;11.33;8.90;;;;;;;15.39;89.26;98553.91;5028358;28;20197;-55
2022/04/23 04:20:11;;;;;;;13.17;8.90;;;;;;;16.45;84.21;98551.28;5029690;28;20199;-55
2022/04/23 04:22:38;;;;;;;12.67;9.13;;;;;;;17.22;79.82;98549.44;5029495;28;20205;-55
2022/04/23 04:25:06;;;;;;;11.37;9.03;;;;;;;17.92;77.16;98550.44;5029293;28;20237;-55
2022/04/23 04:27:34;;;;;;;12.40;8.70;;;;;;;18.97;73.05;98554.69;5029181;28;20205;-55
2022/04/23 04:30:03;;;;;;;11.00;8.73;;;;;;;20.09;69.38;98552.66;5029106;28;20193;-56
2022/04/23 04:32:30;;;;;;;14.35;8.68;;;;;;;21.17;65.32;98561.88;5029373;28;20565;-56
2022/04/23 04:34:57;;;;;;;8.57;7.70;;;;;;;22.10;61.59;98567.66;5029099;28;20237;-56
2022/04/23 04:37:24;;;;;;;9.48;8.30;;;;;;;22.91;58.92;98571.53;5029343;28;20662;-56
2022/04/23 04:39:51;;;;;;;10.02;7.13;;;;;;;23.59;56.05;98571.25;5028996;28;20204;-56
2022/04/23 04:42:18;;;;;;;9.05;7.07;;;;;;;24.43;52.67;98566.41;5029061;28;20288;-56
2022/04/23 04:44:45;;;;;;;7.18;6.47;;;;;;;25.05;50.11;98557.38;5028610;28;20201;-56
2022/04/23 04:47:14;;;;;;;6.80;6.10;;;;;;;25.36;48.42;98556.81;5028826;28;20237;-55
2022/04/23 04:49:41;;;;;;;7.65;6.72;;;;;;;25.69;47.15;98561.25;5028656;28;20258;-56
2022/04/23 04:52:08;;;;;;;6.45;5.93;;;;;;;26.06;46.23;98562.63;5028457;28;20678;-56
2022/04/23 04:54:35;;;;;;;9.20;6.60;;;;;;;26.48;44.41;98555.34;5028613;28;20254;-56
2022/04/23 04:57:03;;;;;;;9.32;6.85;;;;;;;26.94;43.16;98566.25;5028342;28;20197;-57
2022/04/23 04:59:32;;;;;;;7.50;6.65;;;;;;;27.32;41.38;98564.59;5028307;28;20678;-56
2022/04/23 05:02:00;;;;;;;7.47;6.57;;;;;;;27.13;41.53;98573.84;5028622;28;20204;-57
2022/04/23 05:04:29;;;;;;;8.50;6.57;;;;;;;26.86;41.20;98575.06;5028516;28;20254;-57
2022/04/23 05:06:56;;;;;;;8.57;7.18;;;;;;;26.61;42.98;98571.63;5028227;28;20203;-56
2022/04/23 05:09:23;;;;;;;6.88;6.22;;;;;;;26.90;42.39;98575.53;5028107;28;20198;-56
2022/04/23 05:11:49;;;;;;;9.07;6.50;;;;;;;27.28;41.38;98564.13;5028061;28;20197;-56
2022/04/23 05:14:18;;;;;;;9.48;6.85;;;;;;;26.75;41.48;98570.91;5028392;28;20228;-57
2022/04/23 05:16:45;;;;;;;10.15;7.28;;;;;;;27.01;42.10;98565.38;5028489;28;20201;-55
2022/04/23 05:19:12;;;;;;;12.43;7.60;;;;;;;26.64;42.19;98573.94;5028419;28;20566;-56
2022/04/23 05:21:40;;;;;;;9.80;8.13;;;;;;;25.68;44.78;98571.06;5028310;28;20207;-57
2022/04/23 05:24:07;;;;;;;9.18;8.40;;;;;;;24.92;47.08;98565.75;5032366;28;20200;-57
2022/04/23 05:26:35;;;;;;;12.77;11.30;;;;;;;23.03;52.49;98577.47;5035645;28;20391;-56
2022/04/23 05:29:02;;;;;;;20.58;16.65;;;;;;;22.09;54.80;98584.47;5031855;28;20199;-54
2022/04/23 05:31:29;;;;;;;22.08;19.00;;;;;;;20.71;58.51;98559.72;5028082;28;20197;-56
2022/04/23 05:33:56;;;;;;;21.05;18.98;;;;;;;20.46;60.34;98585.53;5027764;28;20638;-55
2022/04/23 05:36:23;;;;;;;17.67;15.80;;;;;;;20.22;60.69;98591.00;5037432;28;20589;-56
2022/04/23 05:38:51;;;;;;;16.58;14.57;;;;;;;20.65;60.37;98592.75;5035326;28;20234;-55
2022/04/23 05:41:18;;;;;;;14.77;12.82;;;;;;;20.96;58.42;98594.44;5030526;28;20224;-55
2022/04/23 05:43:45;;;;;;;13.48;10.70;;;;;;;20.78;57.55;98600.44;5028304;28;20689;-56
2022/04/23 05:46:12;;;;;;;16.90;10.60;;;;;;;21.17;56.76;98597.00;5028271;28;20581;-56
2022/04/23 05:48:39;;;;;;;10.55;9.38;;;;;;;21.17;56.25;98609.38;5027780;28;20197;-56
2022/04/23 05:51:06;;;;;;;12.13;9.38;;;;;;;21.38;56.26;98604.91;5027660;28;20287;-56
2022/04/23 05:53:33;;;;;;;13.98;9.70;;;;;;;21.54;56.13;98605.22;5035917;28;20219;-55
2022/04/23 05:56:01;;;;;;;12.35;8.80;;;;;;;22.12;55.29;98615.91;5037265;28;20580;-56
2022/04/23 05:58:28;;;;;;;11.50;8.60;;;;;;;22.55;54.07;98601.41;5038245;28;20196;-56
2022/04/23 06:00:56;;;;;;;9.43;7.90;;;;;;;23.34;52.71;98605.38;5044961;28;20594;-56
2022/04/23 06:03:22;;;;;;;14.80;7.82;;;;;;;23.93;50.66;98605.88;5047861;28;20268;-57
2022/04/23 06:05:50;;;;;;;6.70;6.10;;;;;;;23.79;49.69;98607.22;5047721;28;20586;-57
2022/04/23 06:08:17;;;;;;;6.25;5.80;;;;;;;24.50;48.46;98604.56;5047556;28;20679;-52
2022/04/23 06:10:44;;;;;;;7.20;5.78;;;;;;;24.87;46.94;98615.78;5047653;28;20196;-55
2022/04/23 06:13:13;;;;;;;6.45;5.95;;;;;;;24.57;47.19;98617.09;5047578;28;20220;-56
2022/04/23 06:15:40;;;;;;;5.53;5.13;;;;;;;24.83;46.84;98616.28;5039634;28;20256;-57
2022/04/23 06:18:07;;;;;;;5.70;5.13;;;;;;;24.82;46.79;98619.91;5035526;28;20582;-55
2022/04/23 06:20:34;;;;;;;6.00;5.40;;;;;;;24.36;47.67;98629.84;5035557;28;20223;-55
2022/04/23 06:23:04;;;;;;;7.20;5.25;;;;;;;23.77;49.12;98625.09;5034767;28;20449;-55
2022/04/23 06:25:31;;;;;;;5.82;5.32;;;;;;;23.87;48.45;98629.34;5040179;28;20227;-56
2022/04/23 06:27:58;;;;;;;6.15;5.50;;;;;;;23.99;48.02;98634.44;5047264;28;20215;-56
2022/04/23 06:30:26;;;;;;;6.57;5.70;;;;;;;23.50;49.79;98632.06;5047007;28;20243;-56
2022/04/23 06:32:53;;;;;;;6.95;6.43;;;;;;;23.64;49.16;98628.09;5047050;28;20258;-55
2022/04/23 06:35:20;;;;;;;6.80;5.88;;;;;;;24.02;48.83;98620.88;5047164;28;20283;-56
2022/04/23 06:37:47;;;;;;;8.13;5.93;;;;;;;23.88;48.17;98622.22;5047307;28;20219;-55
2022/04/23 06:40:14;;;;;;;8.35;5.60;;;;;;;23.81;48.43;98622.00;5042136;28;20205;-55
2022/04/23 06:42:42;;;;;;;7.30;6.63;;;;;;;23.80;48.41;98622.97;5045778;28;20260;-56
2022/04/23 06:45:10;;;;;;;9.70;8.13;;;;;;;24.01;48.80;98620.03;5036007;28;20242;-57
2022/04/23 06:47:38;;;;;;;11.50;8.30;;;;;;;24.37;47.29;98626.22;5043467;28;20200;-56
2022/04/23 06:50:07;;;;;;;8.82;7.97;;;;;;;24.08;47.70;98630.88;5046791;28;20197;-57
2022/04/23 06:52:34;;;;;;;9.13;8.15;;;;;;;23.87;48.86;98634.63;5046756;28;20201;-56
2022/04/23 06:55:01;;;;;;;11.10;8.32;;;;;;;23.68;49.73;98640.06;5046653;28;20203;-56
2022/04/23 06:57:28;;;;;;;14.32;11.40;;;;;;;23.64;49.88;98643.97;5046846;28;20594;-56
2022/04/23 06:59:55;;;;;;;15.35;12.75;;;;;;;23.91;49.36;98639.66;5041759;28;20236;-56
2022/04/23 07:02:22;;;;;;;12.68;11.38;;;;;;;24.06;49.18;98627.53;5026627;28;20204;-57
2022/04/23 07:04:50;;;;;;;11.63;10.40;;;;;;;23.74;49.65;98623.56;5026910;28;20208;-56
2022/04/23 07:07:18;;;;;;;11.57;9.57;;;;;;;23.60;50.45;98636.47;5026957;28;20292;-55
2022/04/23 07:09:45;;;;;;;8.98;8.07;;;;;;;23.97;49.78;98641.69;5026836;28;20596;-56
2022/04/23 07:12:13;;;;;;;8.13;6.13;;;;;;;25.00;47.76;98635.81;5026979;28;20202;-56
2022/04/23 07:14:40;;;;;;;7.00;6.32;;;;;;;26.47;45.18;98649.47;5026553;28;20256;-57
2022/04/23 07:17:07;;;;;;;6.38;5.88;;;;;;;27.59;42.78;98648.63;5026764;28;20240;-56
2022/04/23 07:19:38;;;;;;;6.35;5.32;;;;;;;27.95;41.52;98649.81;5026658;28;20292;-56
2022/04/23 07:22:07;;;;;;;10.85;5.80;;;;;;;28.33;40.94;98652.59;5026649;28;20219;-56
2022/04/23 07:24:34;;;;;;;7.32;5.40;;;;;;;28.89;39.55;98657.47;5026590;28;20222;-56
2022/04/23 07:27:01;;;;;;;6.72;6.05;;;;;;;29.74;38.03;98664.25;5026521;28;20671;-56
2022/04/23 07:29:28;;;;;;;6.10;5.60;;;;;;;30.22;37.14;98652.91;5026405;28;20244;-59
2022/04/23 07:31:55;;;;;;;6.00;5.53;;;;;;;30.46;36.43;98653.53;5026609;28;20212;-58
2022/04/23 07:39:52;;;;;;;5.57;5.15;;;;;;;31.31;34.79;98656.09;5026600;28;20200;-56
2022/04/23 07:42:19;;;;;;;6.85;5.78;;;;;;;30.79;34.89;98656.53;5026917;28;20705;-56
2022/04/23 07:44:46;;;;;;;6.32;5.80;;;;;;;29.12;37.21;98656.59;5026482;28;20201;-56
2022/04/23 07:47:13;;;;;;;9.38;6.05;;;;;;;28.15;39.40;98656.34;5026443;28;20227;-57
2022/04/23 07:49:40;;;;;;;11.60;6.35;;;;;;;28.15;40.24;98659.00;5026203;28;20212;-56
2022/04/23 07:52:08;;;;;;;8.55;6.47;;;;;;;28.89;38.74;98641.44;5040981;28;20200;-56
2022/04/23 07:54:37;;;;;;;5.90;5.40;;;;;;;29.77;36.57;98650.50;5049473;28;20225;-54
2022/04/23 07:57:06;;;;;;;6.40;5.90;;;;;;;28.82;37.50;98648.53;5049684;28;20612;-55
2022/04/23 07:59:33;;;;;;;5.90;5.28;;;;;;;29.41;37.04;98653.97;5049612;28;20193;-56
2022/04/23 08:02:01;;;;;;;8.00;5.95;;;;;;;29.26;37.63;98653.09;5049187;28;20291;-55
2022/04/23 08:04:28;;;;;;;6.82;5.43;;;;;;;29.64;36.93;98653.84;5047090;28;20200;-56
2022/04/23 08:06:56;;;;;;;6.65;6.03;;;;;;;29.23;37.39;98653.47;5044368;28;20634;-57
2022/04/23 08:09:24;;;;;;;8.02;5.50;;;;;;;29.24;37.24;98650.59;5049502;28;20192;-57
2022/04/23 08:11:51;;;;;;;6.25;5.68;;;;;;;28.77;36.79;98656.25;5049501;28;20275;-56
2022/04/23 08:14:18;;;;;;;8.48;5.72;;;;;;;27.80;38.26;98662.22;5049125;28;20221;-56
2022/04/23 08:16:48;;;;;;;5.55;4.90;;;;;;;28.21;38.29;98665.53;5049076;28;20287;-56
2022/04/23 08:19:16;;;;;;;7.60;5.00;;;;;;;28.94;36.94;98664.13;5048748;28;20193;-56
2022/04/23 08:21:43;;;;;;;5.70;5.40;;;;;;;30.14;35.37;98666.38;5049337;28;20291;-56
2022/04/23 08:24:10;;;;;;;6.15;5.55;;;;;;;30.78;34.52;98668.28;5039751;28;20204;-56
2022/04/23 08:26:38;;;;;;;5.57;4.82;;;;;;;30.98;33.28;98672.75;5038725;28;20588;-57
2022/04/23 08:31:49;;;;;;;4.82;4.38;;;;;;;31.28;31.97;98664.53;5031230;28;20680;-56
2022/04/23 08:34:16;;;;;;;5.18;4.60;;;;;;;31.80;31.31;98663.19;5028824;28;20221;-56
2022/04/23 08:36:44;;;;;;;4.40;4.07;;;;;;;31.01;31.82;98660.84;5029040;28;20197;-56
2022/04/23 08:39:11;;;;;;;4.30;4.00;;;;;;;30.68;32.00;98652.53;5028937;28;20684;-56
2022/04/23 08:41:41;;;;;;;5.05;4.53;;;;;;;30.93;32.20;98658.28;5027686;28;20204;-57
2022/04/23 08:44:09;;;;;;;5.35;4.47;;;;;;;29.67;34.31;98636.59;5028795;28;20198;-57
2022/04/23 08:46:37;;;;;;;4.50;4.13;;;;;;;29.35;34.55;98619.91;5028739;28;20612;-57
2022/04/23 08:49:13;;;;;;;5.13;4.35;;;;;;;29.67;33.97;98642.78;5028960;28;20301;-56
2022/04/23 08:51:43;;;;;;;5.82;4.80;;;;;;;29.49;34.58;98611.06;5028401;28;20582;-55
2022/04/23 08:54:14;;;;;;;5.70;4.57;;;;;;;28.89;35.41;98632.63;5028114;28;20779;-55
2022/04/23 08:56:47;;;;;;;5.40;4.65;;;;;;;28.25;37.05;98624.09;5030888;28;20204;-57
2022/04/23 08:59:15;;;;;;;8.30;4.57;;;;;;;27.47;38.84;98622.34;5033043;28;20197;-55
2022/04/23 09:01:44;;;;;;;5.15;4.75;;;;;;;27.02;39.75;98628.31;5027878;28;20231;-56
2022/04/23 09:04:12;;;;;;;5.75;5.03;;;;;;;26.73;40.54;98625.34;5027233;28;20254;-56
2022/04/23 09:06:42;;;;;;;5.10;4.70;;;;;;;26.01;42.00;98606.50;5027540;28;20201;-55
2022/04/23 09:09:14;;;;;;;7.85;5.28;;;;;;;25.96;43.14;98616.78;5035129;28;20193;-56
2022/04/23 09:11:46;;;;;;;6.28;4.85;;;;;;;25.85;43.42;98618.91;5032394;28;20204;-56
2022/04/23 09:14:25;;;;;;;4.90;4.50;;;;;;;26.42;42.04;98616.34;5028254;28;20221;-56
2022/04/23 09:25:16;;;;;;;5.53;4.90;;;;;;;28.41;37.45;98612.50;5031108;28;20752;-56
2022/04/23 09:27:45;;;;;;;4.90;4.60;;;;;;;28.05;38.04;98613.06;5035095;28;20590;-56
2022/04/23 09:30:13;;;;;;;5.03;4.53;;;;;;;29.04;36.82;98606.72;5027679;28;20596;-56
2022/04/23 09:32:56;;;;;;;5.95;4.75;;;;;;;30.29;35.19;98602.09;5027687;28;20205;-55
2022/04/23 09:35:23;;;;;;;5.88;4.43;;;;;;;31.20;33.87;98611.06;5027641;28;20225;-55
2022/04/23 09:40:34;;;;;;;4.55;4.15;;;;;;;31.53;31.72;98612.06;5063779;28;20272;-56
2022/04/23 09:43:04;;;;;;;5.05;3.67;;;;;;;31.27;31.90;98603.88;5068132;28;20703;-56
2022/04/23 09:45:32;;;;;;;4.28;3.97;;;;;;;31.02;32.52;98603.53;5067918;28;20196;-56
2022/04/23 09:48:17;;;;;;;9.20;4.70;;;;;;;31.39;32.67;98595.06;5067941;28;20192;-55
2022/04/23 09:50:45;;;;;;;4.78;4.32;;;;;;;32.82;30.13;98588.59;5067443;28;20206;-55
2022/04/23 09:53:14;;;;;;;6.25;4.03;;;;;;;32.76;30.18;98589.41;5067601;28;20196;-55
2022/04/23 09:55:41;;;;;;;4.80;4.35;;;;;;;32.94;29.12;98581.56;5067738;28;20613;-55
2022/04/23 09:58:11;;;;;;;5.78;3.92;;;;;;;34.06;27.55;98586.50;5067295;28;20196;-55
2022/04/23 10:00:43;;;;;;;7.40;3.53;;;;;;;35.17;26.50;98580.41;5067449;28;20362;-56
2022/04/23 10:03:43;;;;;;;5.00;3.72;;;;;;;35.05;26.28;98584.88;5067851;28;20611;-56
2022/04/23 10:06:35;;;;;;;3.97;2.60;;;;;;;35.10;24.71;98577.78;5067153;28;20200;-56
2022/04/23 10:09:06;;;;;;;5.50;3.40;;;;;;;35.15;23.98;98571.69;5066998;28;20287;-56
2022/04/23 10:11:37;;;;;;;4.25;3.55;;;;;;;34.46;24.61;98568.19;5067183;27;20669;-56
2022/04/23 10:14:07;;;;;;;3.40;2.92;;;;;;;34.39;24.73;98567.44;5065854;28;20242;-56
2022/04/23 10:16:35;;;;;;;9.60;3.00;;;;;;;33.71;25.02;98567.22;5067482;28;20196;-56
2022/04/23 10:19:03;;;;;;;10.55;3.72;;;;;;;33.18;25.70;98539.72;5067445;28;20241;-56
2022/04/23 10:21:39;;;;;;;5.05;3.28;;;;;;;32.45;26.67;98565.84;5067727;28;20192;-56
2022/04/23 10:24:13;;;;;;;4.03;3.40;;;;;;;30.91;28.88;98562.03;5067361;27;20218;-56
2022/04/23 10:26:48;;;;;;;5.03;2.95;;;;;;;29.94;29.34;98551.09;5067437;27;20559;-56
2022/04/23 10:29:21;;;;;;;10.68;4.13;;;;;;;29.25;31.72;98547.19;5067042;28;20206;-56
2022/04/23 10:32:19;;;;;;;4.97;3.03;;;;;;;27.87;32.21;98551.19;5067017;27;20200;-56
2022/04/23 10:34:46;;;;;;;3.83;3.08;;;;;;;27.47;33.49;98545.03;5066744;28;20222;-56
2022/04/23 10:37:14;;;;;;;7.72;3.40;;;;;;;26.99;35.33;98554.06;5067291;28;20288;-55
2022/04/23 10:39:42;;;;;;;4.20;3.22;;;;;;;26.99;35.60;98555.91;5066884;27;20196;-56
2022/04/23 10:42:13;;;;;;;6.40;3.55;;;;;;;26.86;36.26;98555.59;5067156;27;20196;-55
2022/04/23 10:44:42;;;;;;;6.72;3.55;;;;;;;26.25;37.97;98541.03;5067020;28;20668;-55
2022/04/23 10:47:14;;;;;;;6.72;3.67;;;;;;;25.93;38.67;98540.03;5066556;27;20196;-56
2022/04/23 10:49:41;;;;;;;4.20;3.80;;;;;;;26.03;38.26;98535.38;5066594;28;20235;-55
2022/04/23 10:52:09;;;;;;;6.85;3.45;;;;;;;26.01;38.12;98537.38;5066686;28;20223;-54
2022/04/23 10:54:57;;;;;;;8.88;3.50;;;;;;;25.89;38.56;98536.03;5067028;28;20549;-54
2022/04/23 10:57:25;;;;;;;3.72;3.35;;;;;;;25.84;38.65;98533.03;5066760;28;20253;-55
2022/04/23 10:59:53;;;;;;;12.05;3.67;;;;;;;25.64;38.23;98531.66;5066390;28;20283;-55
2022/04/23 11:02:33;;;;;;;7.22;3.92;;;;;;;25.66;38.50;98530.50;5066939;28;20638;-55
2022/04/23 11:13:28;;;;;;;7.63;3.35;;;;;;;25.27;38.82;98516.94;5043807;28;20203;-55
2022/04/23 11:16:14;;;;;;;4.30;3.47;;;;;;;25.43;38.83;98521.47;5066440;28;20219;-55
2022/04/23 11:18:42;;;;;;;6.47;2.97;;;;;;;25.56;39.08;98518.34;5066020;28;20196;-55
2022/04/23 11:21:19;;;;;;;9.73;3.40;;;;;;;25.39;38.57;98495.41;5066714;28;20272;-55
2022/04/23 11:23:47;;;;;;;5.72;3.20;;;;;;;25.35;38.53;98515.31;5066429;28;20192;-55
2022/04/23 11:26:15;;;;;;;9.00;3.85;;;;;;;25.31;38.37;98512.13;5067644;28;20254;-54
2022/04/23 11:28:42;;;;;;;9.20;3.38;;;;;;;25.51;37.98;98520.63;5069889;28;20200;-55
2022/04/23 11:31:15;;;;;;;8.80;3.50;;;;;;;25.57;36.12;98525.31;5069904;27;20207;-54
2022/04/23 11:33:53;;;;;;;3.20;2.65;;;;;;;25.52;36.55;98519.66;5069652;28;20207;-55
2022/04/23 11:36:21;;;;;;;7.47;3.20;;;;;;;25.63;36.56;98514.06;5070144;28;20668;-55
2022/04/23 11:38:48;;;;;;;11.73;3.50;;;;;;;25.41;35.38;98515.47;5069967;28;20200;-54
2022/04/23 11:41:32;;;;;;;11.68;3.85;;;;;;;25.54;35.42;98513.19;5069749;28;20202;-55
2022/04/23 11:43:59;;;;;;;8.95;3.30;;;;;;;25.51;35.94;98510.00;5069587;28;20208;-55
2022/04/23 11:46:27;;;;;;;7.45;2.88;;;;;;;25.37;35.51;98508.00;5069429;28;20195;-54
2022/04/23 11:48:54;;;;;;;8.15;3.30;;;;;;;25.38;35.61;98520.31;5069484;28;20207;-55
2022/04/23 11:51:21;;;;;;;11.73;3.40;;;;;;;25.32;35.89;98525.25;5069441;27;20200;-56
2022/04/23 11:53:58;;;;;;;14.13;3.15;;;;;;;25.05;36.75;98517.53;5069484;28;20239;-55
2022/04/23 11:56:32;;;;;;;13.65;3.55;;;;;;;25.07;37.09;98512.88;5069475;27;20291;-56
2022/04/23 11:59:03;;;;;;;6.75;3.10;;;;;;;24.98;37.53;98505.88;5069642;28;20214;-56
2022/04/23 12:01:31;;;;;;;10.05;3.60;;;;;;;24.79;38.25;98511.41;5069341;28;20291;-55